Troy, MI

11:24 PM EST on March 03, 2015 (GMT -0500)
N Crooks / W Maple | Change Station
CLOSE
Current Station
Personal Weather Station
Location: Clawson, MI
Elevation: 702 ft
Nearby Weather Stations

Elev 702 ft 42.55 °N, 83.16 °W | Updated 3 seconds ago

Overcast
Overcast
33.7 °F
Feels Like 29 °F
N
5.0
Wind Variable Wind from WNW
Gusts 10.0 mph

Today
High -- | Low -- °F
--% Chance of Precip.
Yesterday
High -- | Low -- °F
Precip. -- in
7:05 AM 6:24 PM
Waxing Gibbous, 98% visible
Pressure 29.75 in
Visibility 10.0 miles
Clouds Overcast 2200 ft
Windchill 29 °F
Dew Point 28 °F
Humidity 80%
Rainfall 0.09 in
Snow Depth Not available.
UV 0 out of 12
Pollen .50 out of 12
Air Quality Not available.
Flu Activity Not available.
METAR KVLL 040415Z AUTO 26011G15KT 10SM OVC022 02/M02 A2975 RMK AO2 T00201023

More Conditions Fewer Conditions

Pressure 29.75 in
Visibility 10.0 miles
Clouds Overcast 2200 ft
Windchill 29 °F
Dew Point 28 °F
Humidity 80%
Rainfall 0.09 in
Snow Depth Not available.
UV 0 out of 12
Pollen .50 out of 12
Air Quality Not available.
Flu Activity Not available.
METAR KVLL 040415Z AUTO 26011G15KT 10SM OVC022 02/M02 A2975 RMK AO2 T00201023

More Conditions Fewer Conditions

10-Day Weather Forecast

Almanac

Astronomy

Mar. 03, 2015 Rise Set
Actual Time
Civil Twilight
Nautical Twilight
Astronomical Twilight
Moon
Length of Visible Light
Length of Day
Tomorrow will be .
, % of the Moon is Illuminated

Today's Extremes

State Highs State Lows

Community

WunderPhotos

Upload Photos

1,802,383 photos uploaded!

WunderBlogs® & News

Nearby

Air Quality

  Air Quality AQ Index Pollutant
Not available.

Snow Depth

Station Depth Elevation

Earthquake Activity

City Distance Mag. Time & Date
Minimum magnitude displayed is 2.5.

Coastal Water Temperatures

Place Temperature

Nearby Weather Stations